EZY54ED EGKK-EDDL
Flight info
| Callsign | EZY54ED |
|---|---|
| Flight time | 0h 53m |
| Altitude | 23000 |
| Route | DVR L9 KONAN/N0433F330 DCT KOK UL607 SPI Y862 KENUM M170 NVO T857 BIKMU BIKMU1A |
| Aircraft | A319/M-SDE3FGHIRWY/LB1 |
Departure
| Time | 2026-05-07 13:53 |
|---|---|
| Airport | London Gatwick Airport (EGKK) |
Arrival
| Time | 2026-05-07 14:46 |
|---|---|
| Airport | Düsseldorf Airport (EDDL) |
| Time | Latitude | Longitude | Altitude | Speed | Heading |
|---|---|---|---|---|---|
| 2026-05-07 13:04 | 51.15929 | -0.17155 | 209 ft | 0 kts | 314° |
| 2026-05-07 13:36 | 51.15924 | -0.17148 | 217 ft | 4 kts | 311° |
| 2026-05-07 13:37 | 51.15909 | -0.17113 | 221 ft | 4 kts | 289° |
| 2026-05-07 13:37 | 51.15904 | -0.17072 | 219 ft | 4 kts | 260° |
| 2026-05-07 13:37 | 51.15914 | -0.17039 | 222 ft | 2 kts | 210° |
| 2026-05-07 13:37 | 51.15915 | -0.17038 | 222 ft | 0 kts | 209° |
| 2026-05-07 13:41 | 51.15914 | -0.17039 | 222 ft | 1 kts | 209° |
| 2026-05-07 13:42 | 51.15891 | -0.17058 | 209 ft | 6 kts | 205° |
| 2026-05-07 13:42 | 51.15831 | -0.17092 | 217 ft | 12 kts | 215° |
| 2026-05-07 13:42 | 51.15797 | -0.17240 | 209 ft | 17 kts | 257° |
| 2026-05-07 13:42 | 51.15768 | -0.17452 | 209 ft | 21 kts | 257° |
| 2026-05-07 13:43 | 51.15737 | -0.17687 | 209 ft | 22 kts | 258° |
| 2026-05-07 13:43 | 51.15703 | -0.17927 | 214 ft | 23 kts | 257° |
| 2026-05-07 13:43 | 51.15669 | -0.18173 | 213 ft | 23 kts | 258° |
| 2026-05-07 13:43 | 51.15612 | -0.18351 | 212 ft | 17 kts | 186° |
| 2026-05-07 13:44 | 51.15493 | -0.18314 | 214 ft | 18 kts | 167° |
| 2026-05-07 13:44 | 51.15369 | -0.18271 | 216 ft | 19 kts | 168° |
| 2026-05-07 13:44 | 51.15240 | -0.18225 | 214 ft | 19 kts | 169° |
| 2026-05-07 13:44 | 51.15179 | -0.18376 | 210 ft | 19 kts | 257° |
| 2026-05-07 13:45 | 51.15154 | -0.18555 | 214 ft | 13 kts | 257° |
| 2026-05-07 13:45 | 51.15134 | -0.18700 | 209 ft | 14 kts | 258° |
| 2026-05-07 13:45 | 51.15112 | -0.18856 | 220 ft | 15 kts | 257° |
| 2026-05-07 13:45 | 51.15093 | -0.18988 | 210 ft | 7 kts | 258° |
| 2026-05-07 13:46 | 51.15083 | -0.19062 | 217 ft | 7 kts | 258° |
| 2026-05-07 13:46 | 51.15073 | -0.19143 | 210 ft | 8 kts | 258° |
| 2026-05-07 13:46 | 51.15061 | -0.19233 | 210 ft | 9 kts | 258° |
| 2026-05-07 13:46 | 51.15047 | -0.19330 | 210 ft | 9 kts | 257° |
| 2026-05-07 13:47 | 51.15033 | -0.19433 | 210 ft | 10 kts | 257° |
| 2026-05-07 13:47 | 51.15017 | -0.19545 | 214 ft | 11 kts | 257° |
| 2026-05-07 13:47 | 51.15000 | -0.19666 | 219 ft | 12 kts | 258° |
| 2026-05-07 13:47 | 51.14981 | -0.19805 | 214 ft | 14 kts | 257° |
| 2026-05-07 13:48 | 51.14957 | -0.19983 | 210 ft | 19 kts | 258° |
| 2026-05-07 13:48 | 51.14928 | -0.20190 | 215 ft | 20 kts | 257° |
| 2026-05-07 13:48 | 51.14899 | -0.20405 | 221 ft | 20 kts | 257° |
| 2026-05-07 13:48 | 51.14868 | -0.20628 | 213 ft | 21 kts | 257° |
| 2026-05-07 13:49 | 51.14837 | -0.20855 | 215 ft | 21 kts | 258° |
| 2026-05-07 13:49 | 51.14805 | -0.21083 | 213 ft | 22 kts | 257° |
| 2026-05-07 13:49 | 51.14767 | -0.21308 | 216 ft | 13 kts | 257° |
| 2026-05-07 13:49 | 51.14729 | -0.21405 | 212 ft | 7 kts | 192° |
| 2026-05-07 13:50 | 51.14711 | -0.21401 | 210 ft | 0 kts | 168° |
| 2026-05-07 13:50 | 51.14700 | -0.21395 | 210 ft | 4 kts | 160° |
| 2026-05-07 13:50 | 51.14655 | -0.21354 | 211 ft | 10 kts | 148° |
| 2026-05-07 13:51 | 51.14570 | -0.21294 | 216 ft | 16 kts | 152° |
| 2026-05-07 13:51 | 51.14523 | -0.21136 | 210 ft | 12 kts | 83° |
| 2026-05-07 13:51 | 51.14528 | -0.21101 | 216 ft | 0 kts | 76° |
| 2026-05-07 13:52 | 51.14529 | -0.21098 | 215 ft | 2 kts | 76° |
| 2026-05-07 13:52 | 51.14553 | -0.20933 | 215 ft | 46 kts | 77° |
| 2026-05-07 13:53 | 51.14679 | -0.20012 | 210 ft | 121 kts | 78° |
| 2026-05-07 13:53 | 51.14899 | -0.18400 | 305 ft | 168 kts | 79° |
| 2026-05-07 13:53 | 51.15148 | -0.16504 | 811 ft | 183 kts | 79° |
| 2026-05-07 13:53 | 51.15427 | -0.14491 | 1613 ft | 187 kts | 77° |
| 2026-05-07 13:54 | 51.15743 | -0.12468 | 2410 ft | 190 kts | 76° |
| 2026-05-07 13:54 | 51.16079 | -0.10377 | 3007 ft | 204 kts | 76° |
| 2026-05-07 13:54 | 51.16416 | -0.08046 | 3387 ft | 230 kts | 78° |
| 2026-05-07 13:54 | 51.16756 | -0.05359 | 3731 ft | 265 kts | 80° |
| 2026-05-07 13:55 | 51.16912 | -0.03416 | 4372 ft | 266 kts | 89° |
| 2026-05-07 13:55 | 51.16851 | -0.00471 | 5560 ft | 267 kts | 93° |
| 2026-05-07 13:55 | 51.16768 | 0.02506 | 6617 ft | 269 kts | 93° |
| 2026-05-07 13:55 | 51.16699 | 0.05509 | 7605 ft | 274 kts | 92° |
| 2026-05-07 13:56 | 51.16641 | 0.08567 | 8576 ft | 279 kts | 92° |
| 2026-05-07 13:56 | 51.16591 | 0.11684 | 9540 ft | 284 kts | 92° |
| 2026-05-07 13:56 | 51.16542 | 0.14861 | 10324 ft | 289 kts | 92° |
| 2026-05-07 13:56 | 51.16514 | 0.18091 | 11194 ft | 294 kts | 91° |
| 2026-05-07 13:57 | 51.16520 | 0.21366 | 12082 ft | 298 kts | 91° |
| 2026-05-07 13:57 | 51.16539 | 0.24687 | 12968 ft | 301 kts | 90° |
| 2026-05-07 13:57 | 51.16560 | 0.28044 | 13831 ft | 305 kts | 90° |
| 2026-05-07 13:57 | 51.16576 | 0.31451 | 14597 ft | 310 kts | 91° |
| 2026-05-07 13:58 | 51.16587 | 0.34915 | 15346 ft | 315 kts | 91° |
| 2026-05-07 13:58 | 51.16594 | 0.38429 | 16094 ft | 320 kts | 91° |
| 2026-05-07 13:58 | 51.16596 | 0.41996 | 16846 ft | 324 kts | 91° |
| 2026-05-07 13:58 | 51.16595 | 0.45613 | 17592 ft | 329 kts | 91° |
| 2026-05-07 13:59 | 51.16592 | 0.49282 | 18304 ft | 335 kts | 91° |
| 2026-05-07 13:59 | 51.16557 | 0.53108 | 18493 ft | 356 kts | 92° |
| 2026-05-07 13:59 | 51.16489 | 0.57159 | 18677 ft | 374 kts | 92° |
| 2026-05-07 13:59 | 51.16406 | 0.61354 | 19187 ft | 382 kts | 93° |
| 2026-05-07 14:00 | 51.16317 | 0.65617 | 19816 ft | 387 kts | 93° |
| 2026-05-07 14:00 | 51.16229 | 0.69917 | 20456 ft | 391 kts | 93° |
| 2026-05-07 14:00 | 51.16142 | 0.74209 | 21100 ft | 395 kts | 92° |
| 2026-05-07 14:00 | 51.16054 | 0.78656 | 21748 ft | 399 kts | 92° |
| 2026-05-07 14:01 | 51.15970 | 0.83091 | 22466 ft | 403 kts | 92° |
| 2026-05-07 14:01 | 51.15885 | 0.87508 | 22952 ft | 406 kts | 92° |
| 2026-05-07 14:01 | 51.15796 | 0.92011 | 23067 ft | 407 kts | 92° |
| 2026-05-07 14:01 | 51.15703 | 0.96520 | 23083 ft | 407 kts | 93° |
| 2026-05-07 14:02 | 51.15607 | 1.01022 | 23086 ft | 407 kts | 93° |
| 2026-05-07 14:02 | 51.15511 | 1.05526 | 23080 ft | 407 kts | 93° |
| 2026-05-07 14:02 | 51.15411 | 1.10037 | 23235 ft | 410 kts | 93° |
| 2026-05-07 14:02 | 51.15308 | 1.14592 | 23853 ft | 412 kts | 93° |
| 2026-05-07 14:03 | 51.15204 | 1.19167 | 24370 ft | 415 kts | 93° |
| 2026-05-07 14:03 | 51.15095 | 1.23780 | 24872 ft | 418 kts | 93° |
| 2026-05-07 14:03 | 51.14985 | 1.28432 | 25365 ft | 421 kts | 93° |
| 2026-05-07 14:03 | 51.14873 | 1.33107 | 25842 ft | 424 kts | 93° |
| 2026-05-07 14:04 | 51.14756 | 1.37827 | 26313 ft | 427 kts | 93° |
| 2026-05-07 14:04 | 51.14640 | 1.42565 | 26769 ft | 430 kts | 93° |
| 2026-05-07 14:04 | 51.14525 | 1.47336 | 27237 ft | 433 kts | 93° |
| 2026-05-07 14:04 | 51.14403 | 1.52153 | 27690 ft | 436 kts | 93° |
| 2026-05-07 14:05 | 51.14279 | 1.56989 | 28147 ft | 439 kts | 93° |
| 2026-05-07 14:05 | 51.14153 | 1.61857 | 28604 ft | 442 kts | 93° |
| 2026-05-07 14:05 | 51.14021 | 1.66759 | 29045 ft | 445 kts | 93° |
| 2026-05-07 14:05 | 51.13884 | 1.71703 | 29480 ft | 447 kts | 93° |
| 2026-05-07 14:06 | 51.13745 | 1.76668 | 29895 ft | 450 kts | 93° |
| 2026-05-07 14:06 | 51.13602 | 1.81664 | 30277 ft | 453 kts | 93° |
| 2026-05-07 14:06 | 51.13458 | 1.86623 | 30614 ft | 456 kts | 93° |
| 2026-05-07 14:06 | 51.13312 | 1.91685 | 30951 ft | 458 kts | 93° |
| 2026-05-07 14:07 | 51.13165 | 1.96765 | 31283 ft | 461 kts | 93° |
| 2026-05-07 14:07 | 51.13008 | 2.01863 | 31613 ft | 463 kts | 94° |
| 2026-05-07 14:07 | 51.12789 | 2.06984 | 31992 ft | 463 kts | 95° |
| 2026-05-07 14:07 | 51.12518 | 2.12092 | 32461 ft | 462 kts | 96° |
| 2026-05-07 14:08 | 51.12218 | 2.17175 | 32913 ft | 462 kts | 96° |
| 2026-05-07 14:08 | 51.11912 | 2.22254 | 33060 ft | 460 kts | 96° |
| 2026-05-07 14:08 | 51.11614 | 2.27254 | 33080 ft | 447 kts | 96° |
| 2026-05-07 14:09 | 51.11061 | 2.36979 | 33079 ft | 439 kts | 96° |
| 2026-05-07 14:09 | 51.10526 | 2.46647 | 33077 ft | 438 kts | 96° |
| 2026-05-07 14:10 | 51.09981 | 2.56321 | 33078 ft | 438 kts | 96° |
| 2026-05-07 14:10 | 51.09290 | 2.65934 | 33084 ft | 437 kts | 103° |
| 2026-05-07 14:11 | 51.07646 | 2.75237 | 33084 ft | 437 kts | 107° |
| 2026-05-07 14:11 | 51.05960 | 2.84507 | 33080 ft | 436 kts | 107° |
| 2026-05-07 14:12 | 51.04279 | 2.93715 | 33075 ft | 436 kts | 107° |
| 2026-05-07 14:12 | 51.02593 | 3.02974 | 33069 ft | 436 kts | 107° |
| 2026-05-07 14:13 | 51.00901 | 3.12219 | 33063 ft | 436 kts | 108° |
| 2026-05-07 14:13 | 50.99189 | 3.21450 | 33061 ft | 436 kts | 108° |
| 2026-05-07 14:14 | 50.97467 | 3.30695 | 33057 ft | 436 kts | 108° |
| 2026-05-07 14:14 | 50.95738 | 3.39940 | 33057 ft | 437 kts | 108° |
| 2026-05-07 14:15 | 50.94008 | 3.49168 | 33060 ft | 437 kts | 108° |
| 2026-05-07 14:15 | 50.92263 | 3.58402 | 33061 ft | 437 kts | 108° |
| 2026-05-07 14:16 | 50.90507 | 3.67622 | 33059 ft | 437 kts | 108° |
| 2026-05-07 14:16 | 50.88733 | 3.76833 | 33066 ft | 437 kts | 108° |
| 2026-05-07 14:17 | 50.86945 | 3.86040 | 33065 ft | 438 kts | 108° |
| 2026-05-07 14:17 | 50.85150 | 3.95247 | 32837 ft | 438 kts | 108° |
| 2026-05-07 14:17 | 50.84250 | 3.99858 | 32566 ft | 438 kts | 108° |
| 2026-05-07 14:18 | 50.83352 | 4.04464 | 32306 ft | 439 kts | 108° |
| 2026-05-07 14:18 | 50.82449 | 4.09081 | 32035 ft | 439 kts | 108° |
| 2026-05-07 14:18 | 50.81544 | 4.13692 | 31775 ft | 439 kts | 109° |
| 2026-05-07 14:18 | 50.80646 | 4.18246 | 31514 ft | 440 kts | 109° |
| 2026-05-07 14:19 | 50.79724 | 4.22911 | 31261 ft | 439 kts | 109° |
| 2026-05-07 14:19 | 50.78828 | 4.27446 | 31012 ft | 437 kts | 109° |
| 2026-05-07 14:19 | 50.77924 | 4.32021 | 30756 ft | 435 kts | 109° |
| 2026-05-07 14:19 | 50.77020 | 4.36579 | 30507 ft | 433 kts | 109° |
| 2026-05-07 14:20 | 50.76119 | 4.41111 | 30262 ft | 432 kts | 109° |
| 2026-05-07 14:20 | 50.75219 | 4.45624 | 29992 ft | 430 kts | 109° |
| 2026-05-07 14:20 | 50.74318 | 4.50112 | 29702 ft | 428 kts | 109° |
| 2026-05-07 14:20 | 50.73417 | 4.54572 | 29409 ft | 426 kts | 109° |
| 2026-05-07 14:21 | 50.72517 | 4.59013 | 29115 ft | 424 kts | 109° |
| 2026-05-07 14:21 | 50.71629 | 4.63440 | 28827 ft | 422 kts | 108° |
| 2026-05-07 14:21 | 50.70767 | 4.67855 | 28544 ft | 420 kts | 108° |
| 2026-05-07 14:21 | 50.69917 | 4.72257 | 28269 ft | 418 kts | 108° |
| 2026-05-07 14:22 | 50.69076 | 4.76632 | 27993 ft | 416 kts | 108° |
| 2026-05-07 14:22 | 50.68239 | 4.80993 | 27724 ft | 414 kts | 108° |
| 2026-05-07 14:22 | 50.67402 | 4.85327 | 27458 ft | 413 kts | 108° |
| 2026-05-07 14:22 | 50.66562 | 4.89647 | 27164 ft | 411 kts | 108° |
| 2026-05-07 14:23 | 50.65720 | 4.93932 | 26766 ft | 408 kts | 108° |
| 2026-05-07 14:23 | 50.64860 | 4.98183 | 26386 ft | 406 kts | 109° |
| 2026-05-07 14:23 | 50.63994 | 5.02393 | 26001 ft | 403 kts | 109° |
| 2026-05-07 14:23 | 50.63121 | 5.06587 | 25624 ft | 401 kts | 109° |
| 2026-05-07 14:24 | 50.62256 | 5.10741 | 25256 ft | 398 kts | 109° |
| 2026-05-07 14:24 | 50.61396 | 5.14873 | 24874 ft | 396 kts | 109° |
| 2026-05-07 14:24 | 50.60544 | 5.18987 | 24517 ft | 394 kts | 109° |
| 2026-05-07 14:24 | 50.59694 | 5.23074 | 24163 ft | 392 kts | 109° |
| 2026-05-07 14:25 | 50.58849 | 5.27137 | 23813 ft | 390 kts | 109° |
| 2026-05-07 14:25 | 50.58006 | 5.31184 | 23425 ft | 388 kts | 109° |
| 2026-05-07 14:25 | 50.57170 | 5.35198 | 23007 ft | 385 kts | 109° |
| 2026-05-07 14:25 | 50.56337 | 5.39193 | 22636 ft | 383 kts | 109° |
| 2026-05-07 14:26 | 50.55505 | 5.43167 | 22356 ft | 382 kts | 109° |
| 2026-05-07 14:26 | 50.54673 | 5.47122 | 22106 ft | 380 kts | 109° |
| 2026-05-07 14:26 | 50.53853 | 5.51017 | 21842 ft | 379 kts | 109° |
| 2026-05-07 14:26 | 50.53179 | 5.55014 | 21568 ft | 378 kts | 101° |
| 2026-05-07 14:27 | 50.52907 | 5.59114 | 21302 ft | 377 kts | 92° |
| 2026-05-07 14:27 | 50.53037 | 5.63224 | 21042 ft | 376 kts | 83° |
| 2026-05-07 14:27 | 50.53562 | 5.67244 | 20783 ft | 375 kts | 73° |
| 2026-05-07 14:27 | 50.54470 | 5.71076 | 20520 ft | 374 kts | 64° |
| 2026-05-07 14:28 | 50.55676 | 5.74691 | 20268 ft | 373 kts | 61° |
| 2026-05-07 14:28 | 50.56899 | 5.78276 | 19989 ft | 371 kts | 62° |
| 2026-05-07 14:28 | 50.58111 | 5.81854 | 19617 ft | 369 kts | 62° |
| 2026-05-07 14:28 | 50.59307 | 5.85408 | 19244 ft | 367 kts | 62° |
| 2026-05-07 14:29 | 50.60498 | 5.88951 | 18881 ft | 365 kts | 62° |
| 2026-05-07 14:29 | 50.61683 | 5.92469 | 18516 ft | 363 kts | 62° |
| 2026-05-07 14:29 | 50.62862 | 5.95972 | 18127 ft | 361 kts | 62° |
| 2026-05-07 14:29 | 50.64031 | 5.99454 | 17612 ft | 360 kts | 62° |
| 2026-05-07 14:30 | 50.65208 | 6.02962 | 16939 ft | 363 kts | 62° |
| 2026-05-07 14:30 | 50.66394 | 6.06504 | 16288 ft | 366 kts | 62° |
| 2026-05-07 14:30 | 50.67582 | 6.10061 | 15651 ft | 368 kts | 62° |
| 2026-05-07 14:30 | 50.68774 | 6.13627 | 15109 ft | 367 kts | 62° |
| 2026-05-07 14:31 | 50.69960 | 6.17172 | 14613 ft | 364 kts | 62° |
| 2026-05-07 14:31 | 50.71140 | 6.20687 | 14214 ft | 359 kts | 61° |
| 2026-05-07 14:31 | 50.72281 | 6.24154 | 13776 ft | 355 kts | 64° |
| 2026-05-07 14:31 | 50.73227 | 6.27749 | 13243 ft | 353 kts | 68° |
| 2026-05-07 14:32 | 50.74142 | 6.31342 | 12717 ft | 351 kts | 68° |
| 2026-05-07 14:32 | 50.75045 | 6.34908 | 12196 ft | 349 kts | 68° |
| 2026-05-07 14:32 | 50.75939 | 6.38455 | 11686 ft | 346 kts | 68° |
| 2026-05-07 14:32 | 50.76824 | 6.41967 | 11171 ft | 343 kts | 68° |
| 2026-05-07 14:33 | 50.77702 | 6.45450 | 10689 ft | 340 kts | 68° |
| 2026-05-07 14:33 | 50.78571 | 6.48910 | 10213 ft | 337 kts | 68° |
| 2026-05-07 14:33 | 50.79419 | 6.52286 | 10044 ft | 324 kts | 68° |
| 2026-05-07 14:33 | 50.80254 | 6.55491 | 10037 ft | 306 kts | 64° |
| 2026-05-07 14:34 | 50.81338 | 6.58343 | 9693 ft | 301 kts | 52° |
| 2026-05-07 14:34 | 50.82723 | 6.60732 | 9290 ft | 289 kts | 41° |
| 2026-05-07 14:34 | 50.84298 | 6.62592 | 8915 ft | 276 kts | 30° |
| 2026-05-07 14:34 | 50.85959 | 6.63918 | 8662 ft | 268 kts | 20° |
| 2026-05-07 14:35 | 50.87742 | 6.64776 | 8399 ft | 262 kts | 11° |
| 2026-05-07 14:35 | 50.89501 | 6.65191 | 8143 ft | 256 kts | 6° |
| 2026-05-07 14:35 | 50.91245 | 6.65561 | 7887 ft | 251 kts | 7° |
| 2026-05-07 14:35 | 50.92960 | 6.65932 | 7632 ft | 246 kts | 7° |
| 2026-05-07 14:36 | 50.94638 | 6.66295 | 7376 ft | 242 kts | 7° |
| 2026-05-07 14:36 | 50.96300 | 6.66653 | 7143 ft | 240 kts | 7° |
| 2026-05-07 14:36 | 50.97947 | 6.67010 | 7049 ft | 238 kts | 7° |
| 2026-05-07 14:36 | 50.99589 | 6.67367 | 7054 ft | 239 kts | 7° |
| 2026-05-07 14:37 | 51.01235 | 6.67722 | 7053 ft | 239 kts | 7° |
| 2026-05-07 14:37 | 51.04549 | 6.67777 | 6627 ft | 237 kts | 356° |
| 2026-05-07 14:37 | 51.06190 | 6.67607 | 6376 ft | 236 kts | 354° |
| 2026-05-07 14:38 | 51.07817 | 6.67328 | 6119 ft | 234 kts | 353° |
| 2026-05-07 14:38 | 51.09426 | 6.67030 | 5854 ft | 232 kts | 353° |
| 2026-05-07 14:38 | 51.11018 | 6.66731 | 5596 ft | 229 kts | 353° |
| 2026-05-07 14:38 | 51.12560 | 6.66163 | 5336 ft | 228 kts | 333° |
| 2026-05-07 14:39 | 51.13696 | 6.64451 | 5083 ft | 228 kts | 300° |
| 2026-05-07 14:39 | 51.14102 | 6.62015 | 4828 ft | 230 kts | 277° |
| 2026-05-07 14:39 | 51.14190 | 6.59482 | 4560 ft | 228 kts | 274° |
| 2026-05-07 14:39 | 51.14241 | 6.56942 | 4294 ft | 230 kts | 274° |
| 2026-05-07 14:40 | 51.14291 | 6.54394 | 3960 ft | 231 kts | 274° |
| 2026-05-07 14:40 | 51.14340 | 6.51821 | 3655 ft | 233 kts | 273° |
| 2026-05-07 14:40 | 51.14451 | 6.49242 | 3382 ft | 232 kts | 284° |
| 2026-05-07 14:40 | 51.15237 | 6.47100 | 3121 ft | 225 kts | 322° |
| 2026-05-07 14:41 | 51.16648 | 6.46363 | 2994 ft | 212 kts | 5° |
| 2026-05-07 14:41 | 51.17897 | 6.47369 | 3003 ft | 207 kts | 49° |
| 2026-05-07 14:41 | 51.18370 | 6.49495 | 3015 ft | 208 kts | 84° |
| 2026-05-07 14:41 | 51.18508 | 6.51789 | 3012 ft | 206 kts | 81° |
| 2026-05-07 14:42 | 51.18768 | 6.53941 | 3045 ft | 191 kts | 70° |
| 2026-05-07 14:42 | 51.19356 | 6.55810 | 3000 ft | 185 kts | 56° |
| 2026-05-07 14:42 | 51.20084 | 6.57502 | 2862 ft | 185 kts | 52° |
| 2026-05-07 14:42 | 51.20848 | 6.59140 | 2641 ft | 185 kts | 51° |
| 2026-05-07 14:43 | 51.21370 | 6.60239 | 2474 ft | 183 kts | 51° |
| 2026-05-07 14:43 | 51.22129 | 6.61827 | 2240 ft | 182 kts | 51° |
| 2026-05-07 14:43 | 51.22905 | 6.63446 | 1995 ft | 181 kts | 51° |
| 2026-05-07 14:43 | 51.23660 | 6.65022 | 1756 ft | 175 kts | 51° |
| 2026-05-07 14:44 | 51.24363 | 6.66491 | 1543 ft | 158 kts | 50° |
| 2026-05-07 14:44 | 51.24993 | 6.67808 | 1317 ft | 144 kts | 50° |
| 2026-05-07 14:44 | 51.25570 | 6.69016 | 1122 ft | 131 kts | 50° |
| 2026-05-07 14:44 | 51.26119 | 6.70163 | 949 ft | 129 kts | 51° |
| 2026-05-07 14:45 | 51.26653 | 6.71278 | 773 ft | 126 kts | 51° |
| 2026-05-07 14:45 | 51.27187 | 6.72396 | 604 ft | 126 kts | 51° |
| 2026-05-07 14:45 | 51.27719 | 6.73509 | 425 ft | 126 kts | 49° |
| 2026-05-07 14:45 | 51.28249 | 6.74621 | 288 ft | 124 kts | 50° |
| 2026-05-07 14:46 | 51.28763 | 6.75690 | 124 ft | 117 kts | 50° |
| 2026-05-07 14:46 | 51.29198 | 6.76598 | 117 ft | 81 kts | 52° |
| 2026-05-07 14:46 | 51.29441 | 6.77115 | 118 ft | 45 kts | 52° |
| 2026-05-07 14:46 | 51.29582 | 6.77432 | 118 ft | 30 kts | 75° |
| 2026-05-07 14:47 | 51.29571 | 6.77760 | 118 ft | 30 kts | 115° |
| 2026-05-07 14:47 | 51.29511 | 6.77884 | 118 ft | 9 kts | 141° |
| 2026-05-07 14:47 | 51.29461 | 6.77949 | 118 ft | 10 kts | 141° |
| 2026-05-07 14:47 | 51.29404 | 6.78019 | 116 ft | 11 kts | 143° |
| 2026-05-07 14:48 | 51.29339 | 6.78096 | 117 ft | 13 kts | 143° |
| 2026-05-07 14:48 | 51.29253 | 6.78197 | 117 ft | 17 kts | 148° |
| 2026-05-07 14:48 | 51.29148 | 6.78157 | 118 ft | 17 kts | 231° |
| 2026-05-07 14:48 | 51.29073 | 6.78001 | 118 ft | 18 kts | 232° |
| 2026-05-07 14:49 | 51.28993 | 6.77836 | 118 ft | 19 kts | 232° |
| 2026-05-07 14:49 | 51.28909 | 6.77662 | 116 ft | 20 kts | 232° |
| 2026-05-07 14:49 | 51.28822 | 6.77478 | 117 ft | 21 kts | 234° |
| 2026-05-07 14:49 | 51.28731 | 6.77283 | 116 ft | 22 kts | 233° |
| 2026-05-07 14:50 | 51.28637 | 6.77085 | 118 ft | 23 kts | 232° |
| 2026-05-07 14:50 | 51.28536 | 6.76873 | 117 ft | 24 kts | 232° |
| 2026-05-07 14:50 | 51.28455 | 6.76705 | 118 ft | 14 kts | 232° |
| 2026-05-07 14:50 | 51.28402 | 6.76592 | 116 ft | 11 kts | 233° |
| 2026-05-07 14:51 | 51.28359 | 6.76502 | 117 ft | 9 kts | 232° |
| 2026-05-07 14:51 | 51.28321 | 6.76423 | 118 ft | 9 kts | 233° |
| 2026-05-07 14:51 | 51.28283 | 6.76343 | 116 ft | 9 kts | 233° |
| 2026-05-07 14:51 | 51.28246 | 6.76265 | 116 ft | 9 kts | 233° |
| 2026-05-07 14:52 | 51.28195 | 6.76243 | 118 ft | 8 kts | 161° |
| 2026-05-07 14:52 | 51.28155 | 6.76292 | 116 ft | 7 kts | 140° |
| 2026-05-07 14:52 | 51.28106 | 6.76294 | 116 ft | 7 kts | 185° |
| 2026-05-07 14:52 | 51.28063 | 6.76288 | 118 ft | 4 kts | 185° |
| 2026-05-07 14:53 | 51.28052 | 6.76286 | 117 ft | 0 kts | 185° |